createdAt,value
2018-11-03T00:02:34.331Z,10.00
2018-11-03T00:05:12.339Z,11.57
2018-11-03T00:07:49.519Z,10.60
2018-11-03T00:10:24.776Z,14.70
2018-11-03T00:12:59.692Z,13.17
2018-11-03T00:15:37.419Z,12.53
2018-11-03T00:18:12.421Z,16.03
2018-11-03T00:20:50.301Z,13.57
2018-11-03T00:23:27.276Z,16.13
2018-11-03T00:26:10.684Z,12.07
2018-11-03T00:28:51.932Z,13.13
2018-11-03T00:31:29.775Z,13.17
2018-11-03T00:34:16.652Z,16.60
2018-11-03T00:36:55.375Z,14.40
2018-11-03T00:39:35.936Z,15.10
2018-11-03T00:42:16.640Z,14.47
2018-11-03T00:44:56.575Z,14.80
2018-11-03T00:47:33.016Z,13.70
2018-11-03T00:50:10.357Z,12.27
2018-11-03T00:52:47.425Z,14.67
2018-11-03T00:55:23.498Z,13.90
2018-11-03T00:57:58.868Z,12.17
2018-11-03T01:00:33.894Z,12.30
2018-11-03T01:03:10.283Z,13.93
2018-11-03T01:05:47.172Z,13.50
2018-11-03T01:08:22.697Z,13.53
2018-11-03T01:10:57.761Z,12.63
2018-11-03T01:13:32.696Z,13.80
2018-11-03T01:16:09.612Z,14.03
2018-11-03T01:18:45.570Z,12.00
2018-11-03T01:21:20.646Z,15.23
2018-11-03T01:23:55.691Z,12.70
2018-11-03T01:26:31.212Z,12.33
2018-11-03T01:29:06.510Z,16.57
2018-11-03T01:31:41.457Z,13.60
2018-11-03T01:34:17.034Z,14.80
2018-11-03T01:36:54.397Z,13.17
2018-11-03T01:39:29.926Z,13.80
2018-11-03T01:42:05.884Z,12.00
2018-11-03T01:44:40.718Z,12.53
2018-11-03T01:47:16.340Z,12.30
2018-11-03T01:49:52.238Z,13.70
2018-11-03T01:52:27.049Z,14.63
2018-11-03T01:55:02.116Z,12.67
2018-11-03T01:57:38.466Z,13.93
2018-11-03T02:00:13.719Z,12.57
2018-11-03T02:02:50.523Z,12.73
2018-11-03T02:05:25.454Z,13.60
2018-11-03T02:08:01.343Z,15.77
2018-11-03T02:10:36.228Z,14.20
2018-11-03T02:13:11.450Z,14.83
2018-11-03T02:15:46.294Z,15.93
2018-11-03T02:18:21.043Z,16.70
2018-11-03T02:20:59.169Z,13.63
2018-11-03T02:23:36.268Z,13.60
2018-11-03T02:26:11.294Z,13.73
2018-11-03T02:28:46.311Z,13.37
2018-11-03T02:31:21.723Z,14.57
2018-11-03T02:33:57.256Z,15.07
2018-11-03T02:36:33.328Z,13.83
2018-11-03T02:39:09.725Z,12.57
2018-11-03T02:41:44.880Z,13.30
2018-11-03T02:44:20.969Z,13.33
2018-11-03T02:47:00.373Z,14.03
2018-11-03T02:49:35.679Z,13.83
2018-11-03T02:52:10.701Z,12.20
2018-11-03T02:54:46.958Z,13.13
2018-11-03T02:57:22.364Z,13.77
2018-11-03T02:59:57.843Z,12.83
2018-11-03T03:02:33.296Z,14.43
2018-11-03T03:05:09.341Z,15.57
2018-11-03T03:07:44.220Z,14.70
2018-11-03T03:10:19.378Z,15.40
2018-11-03T03:12:55.726Z,14.23
2018-11-03T03:15:30.562Z,13.87
2018-11-03T03:18:07.422Z,14.67
2018-11-03T03:20:42.288Z,14.37
2018-11-03T03:23:17.284Z,13.80
2018-11-03T03:25:53.743Z,15.80
2018-11-03T03:28:28.530Z,13.53
2018-11-03T03:31:04.677Z,14.70
2018-11-03T03:33:39.773Z,15.80
2018-11-03T03:36:15.455Z,14.67
2018-11-03T03:38:52.117Z,14.80
2018-11-03T03:41:27.151Z,13.57
2018-11-03T03:44:02.701Z,14.53
2018-11-03T03:46:37.618Z,15.33
2018-11-03T03:49:12.788Z,17.40
2018-11-03T03:51:47.616Z,13.23
2018-11-03T03:54:25.107Z,14.83
2018-11-03T03:57:01.777Z,13.93
2018-11-03T03:59:37.066Z,17.33
2018-11-03T04:02:12.124Z,15.13
2018-11-03T04:04:47.929Z,15.50
2018-11-03T04:07:22.762Z,15.30
2018-11-03T04:09:57.681Z,19.70
2018-11-03T04:12:33.118Z,20.40
2018-11-03T04:15:09.689Z,16.70
2018-11-03T04:17:46.699Z,15.60
2018-11-03T04:20:21.038Z,17.10
2018-11-03T04:22:59.561Z,16.63
2018-11-03T04:25:36.199Z,16.90
2018-11-03T04:28:12.965Z,18.23
2018-11-03T04:30:48.579Z,17.83
2018-11-03T04:33:25.152Z,23.40
2018-11-03T04:36:00.174Z,21.37
2018-11-03T04:38:36.011Z,17.23
2018-11-03T04:41:11.576Z,19.67
2018-11-03T04:43:46.434Z,21.33
2018-11-03T04:46:21.660Z,20.60
2018-11-03T04:49:02.522Z,19.60
2018-11-03T04:51:37.744Z,18.93
2018-11-03T04:54:12.711Z,21.50
2018-11-03T04:56:47.603Z,19.10
2018-11-03T04:59:22.714Z,19.13
2018-11-03T05:01:57.483Z,18.17
2018-11-03T05:04:32.562Z,20.70
2018-11-03T05:07:07.466Z,19.43
2018-11-03T05:09:42.430Z,20.20
2018-11-03T05:12:17.521Z,20.37
2018-11-03T05:14:52.613Z,20.07
2018-11-03T05:17:27.531Z,18.30
2018-11-03T05:20:02.512Z,17.03
2018-11-03T05:22:38.235Z,16.43
2018-11-03T05:25:13.817Z,19.63
2018-11-03T05:27:49.879Z,19.43
2018-11-03T05:30:25.015Z,18.70
2018-11-03T05:33:00.535Z,21.87
2018-11-03T05:35:38.279Z,18.27
2018-11-03T05:38:16.712Z,17.83
2018-11-03T05:40:52.553Z,19.97
2018-11-03T05:43:27.777Z,18.60
2018-11-03T05:46:06.916Z,18.13
2018-11-03T05:48:42.457Z,19.70
2018-11-03T05:51:17.413Z,20.80
2018-11-03T05:53:52.897Z,19.00
2018-11-03T05:56:27.966Z,19.13
2018-11-03T05:59:03.260Z,19.90
2018-11-03T06:01:38.915Z,18.67
2018-11-03T06:04:16.996Z,20.37
2018-11-03T06:06:52.236Z,21.77
2018-11-03T06:09:27.560Z,24.07
2018-11-03T06:12:02.737Z,20.10
2018-11-03T06:14:38.327Z,19.30
2018-11-03T06:17:13.423Z,19.23
2018-11-03T06:19:48.610Z,18.00
2018-11-03T06:22:24.655Z,22.83
2018-11-03T06:24:59.483Z,18.53
2018-11-03T06:27:34.742Z,20.50
2018-11-03T06:30:11.659Z,20.80
2018-11-03T06:32:50.528Z,22.33
2018-11-03T06:35:25.640Z,18.27
2018-11-03T06:38:01.750Z,25.43
2018-11-03T06:40:38.654Z,20.00
2018-11-03T06:43:13.831Z,22.57
2018-11-03T06:45:49.748Z,21.50
2018-11-03T06:48:24.323Z,19.43
2018-11-03T06:50:59.053Z,21.67
2018-11-03T06:53:35.460Z,22.63
2018-11-03T06:56:10.727Z,19.77
2018-11-03T06:58:46.206Z,20.00
2018-11-03T07:01:21.036Z,20.73
2018-11-03T07:03:56.056Z,22.23
2018-11-03T07:06:31.196Z,21.80
2018-11-03T07:09:09.032Z,20.60
2018-11-03T07:11:44.289Z,19.80
2018-11-03T07:14:20.876Z,22.90
2018-11-03T07:16:56.900Z,21.93
2018-11-03T07:19:32.817Z,19.43
2018-11-03T07:22:10.766Z,19.40
2018-11-03T07:24:45.631Z,19.60
2018-11-03T07:27:20.471Z,18.43
2018-11-03T07:29:58.091Z,21.20
2018-11-03T07:32:35.144Z,20.17
2018-11-03T07:35:12.169Z,22.00
2018-11-03T07:37:46.963Z,20.17
2018-11-03T07:40:22.323Z,19.83
2018-11-03T07:42:57.393Z,19.27
2018-11-03T07:45:32.404Z,18.00
2018-11-03T07:48:07.518Z,22.13
2018-11-03T07:50:42.443Z,20.27
2018-11-03T07:53:17.496Z,19.83
2018-11-03T07:55:52.328Z,21.10
2018-11-03T07:58:27.015Z,20.13
2018-11-03T08:01:02.044Z,20.10
2018-11-03T08:03:38.367Z,22.23
2018-11-03T08:06:13.124Z,19.87
2018-11-03T08:08:47.678Z,19.97
2018-11-03T08:11:22.353Z,18.87
2018-11-03T08:13:58.312Z,22.30
2018-11-03T08:16:32.952Z,19.07
2018-11-03T08:19:07.676Z,17.10
2018-11-03T08:21:42.312Z,19.27
2018-11-03T08:24:16.873Z,19.73
2018-11-03T08:26:51.441Z,16.17
2018-11-03T08:29:25.930Z,19.43
2018-11-03T08:32:00.747Z,18.73
2018-11-03T08:34:35.665Z,17.10
2018-11-03T08:37:10.624Z,18.07
2018-11-03T08:39:45.275Z,17.87
2018-11-03T08:42:19.684Z,15.93
2018-11-03T08:44:54.524Z,15.97
2018-11-03T08:47:29.575Z,14.93
2018-11-03T08:50:04.984Z,16.77
2018-11-03T08:52:40.215Z,16.20
2018-11-03T08:55:46.106Z,15.10
2018-11-03T09:00:52.890Z,18.53
2018-11-03T09:03:27.513Z,15.37
2018-11-03T09:06:02.678Z,16.53
2018-11-03T09:08:37.624Z,17.33
2018-11-03T09:11:12.491Z,17.90
2018-11-03T09:13:47.270Z,15.27
2018-11-03T09:16:21.884Z,16.07
2018-11-03T09:18:56.815Z,17.87
2018-11-03T09:21:31.334Z,16.30
2018-11-03T09:24:06.278Z,15.63
2018-11-03T09:26:41.477Z,14.63
2018-11-03T09:29:16.319Z,13.77
2018-11-03T09:31:55.339Z,14.77
2018-11-03T09:34:29.994Z,14.63
2018-11-03T09:37:04.935Z,13.67
2018-11-03T09:39:39.802Z,18.47
2018-11-03T09:42:14.500Z,14.23
2018-11-03T09:44:49.315Z,12.47
2018-11-03T09:47:23.858Z,13.30
2018-11-03T09:49:58.849Z,13.83
2018-11-03T09:52:33.287Z,13.70
2018-11-03T09:55:10.932Z,13.23
2018-11-03T09:57:45.500Z,14.73
2018-11-03T10:00:21.032Z,14.00
2018-11-03T10:02:55.762Z,15.47
2018-11-03T10:05:30.862Z,13.23
2018-11-03T10:08:07.774Z,13.43
2018-11-03T10:10:42.517Z,12.63
2018-11-03T10:13:17.118Z,12.70
2018-11-03T10:15:52.039Z,13.13
2018-11-03T10:18:26.636Z,12.63
2018-11-03T10:21:01.240Z,12.47
2018-11-03T10:23:36.089Z,12.07
2018-11-03T10:26:10.904Z,11.50
2018-11-03T10:28:45.281Z,11.53
2018-11-03T10:31:19.728Z,11.93
2018-11-03T10:33:54.223Z,12.00
2018-11-03T10:36:28.471Z,11.53
2018-11-03T10:39:02.943Z,12.27
2018-11-03T10:41:37.517Z,11.53
2018-11-03T10:44:13.691Z,11.43
2018-11-03T10:46:48.301Z,11.47
2018-11-03T10:49:22.848Z,11.03
2018-11-03T10:51:57.319Z,12.43
2018-11-03T10:54:31.822Z,11.70
2018-11-03T10:57:06.820Z,12.20
2018-11-03T10:59:41.950Z,11.83
2018-11-03T11:02:33.993Z,11.83
2018-11-03T11:05:24.031Z,11.63
2018-11-03T11:08:09.824Z,12.47
2018-11-03T11:10:51.197Z,11.40
2018-11-03T11:13:27.703Z,12.43
2018-11-03T11:16:05.172Z,13.87
2018-11-03T11:21:39.041Z,12.13
2018-11-03T11:24:15.697Z,11.33
2018-11-03T11:27:01.167Z,11.47
2018-11-03T11:29:36.188Z,12.10
2018-11-03T11:32:12.226Z,11.73
2018-11-03T11:34:47.130Z,12.10
2018-11-03T11:37:21.741Z,11.30
2018-11-03T11:39:58.046Z,11.47
2018-11-03T11:42:34.006Z,12.77
2018-11-03T11:45:09.038Z,12.23
2018-11-03T11:47:43.877Z,11.10
2018-11-03T11:50:18.694Z,10.43
2018-11-03T11:52:53.254Z,10.97
2018-11-03T11:55:27.992Z,11.67
2018-11-03T11:58:04.159Z,11.57
2018-11-03T12:00:39.087Z,14.20
2018-11-03T12:03:13.759Z,11.83
2018-11-03T12:05:48.199Z,11.73
2018-11-03T12:08:23.333Z,12.40
2018-11-03T12:14:50.732Z,12.37
2018-11-03T12:26:28.879Z,12.43
2018-11-03T12:47:42.455Z,11.03
2018-11-03T12:50:20.526Z,10.47
2018-11-03T12:52:55.487Z,10.60
2018-11-03T12:55:30.846Z,9.97
2018-11-03T12:58:09.514Z,10.07
2018-11-03T13:00:45.091Z,9.63
2018-11-03T13:03:19.971Z,11.23
2018-11-03T13:05:55.857Z,12.97
2018-11-03T13:08:31.719Z,9.53
2018-11-03T13:11:06.455Z,9.97
2018-11-03T13:13:47.034Z,11.27
2018-11-03T13:16:21.583Z,9.47
2018-11-03T13:18:58.376Z,9.63
2018-11-03T13:21:32.894Z,9.20
2018-11-03T13:24:07.462Z,10.20
2018-11-03T13:26:43.993Z,10.57
2018-11-03T13:29:18.748Z,14.17
2018-11-03T13:31:53.188Z,11.17
2018-11-03T13:34:27.855Z,9.77
2018-11-03T13:37:04.666Z,12.90
2018-11-03T13:39:39.499Z,11.87
2018-11-03T13:42:15.443Z,18.10
2018-11-03T13:44:49.948Z,14.37
2018-11-03T13:47:24.709Z,9.70
2018-11-03T13:49:59.148Z,12.03
2018-11-03T13:52:33.999Z,9.37
2018-11-03T13:55:09.054Z,10.80
2018-11-03T13:57:44.865Z,10.87
2018-11-03T14:00:23.906Z,9.90
2018-11-03T14:02:58.404Z,9.77
2018-11-03T14:05:32.831Z,9.53
2018-11-03T14:08:07.859Z,9.63
2018-11-03T14:10:42.886Z,9.50
2018-11-03T14:13:18.270Z,9.97
2018-11-03T14:15:52.999Z,11.37
2018-11-03T14:18:27.498Z,10.07
2018-11-03T14:21:02.401Z,12.97
2018-11-03T14:23:37.438Z,9.63
2018-11-03T14:26:12.447Z,11.10
2018-11-03T14:28:47.113Z,10.67
2018-11-03T14:31:21.670Z,9.70
2018-11-03T14:33:59.372Z,11.90
2018-11-03T14:36:33.955Z,12.73
2018-11-03T14:39:09.470Z,9.70
2018-11-03T14:41:43.984Z,10.07
2018-11-03T14:44:18.544Z,9.27
2018-11-03T14:46:55.043Z,10.37
2018-11-03T14:49:35.746Z,8.97
2018-11-03T14:52:11.358Z,10.20
2018-11-03T14:54:49.591Z,9.93
2018-11-03T14:57:24.237Z,10.23
2018-11-03T14:59:58.735Z,10.10
2018-11-03T15:02:33.637Z,9.40
2018-11-03T15:05:09.128Z,9.80
2018-11-03T15:07:44.643Z,9.50
2018-11-03T15:10:20.534Z,8.93
2018-11-03T15:12:55.284Z,11.77
2018-11-03T15:15:31.398Z,13.00
2018-11-03T15:18:06.028Z,10.40
2018-11-03T15:20:45.785Z,10.70
2018-11-03T15:23:20.436Z,9.33
2018-11-03T15:25:54.969Z,8.67
2018-11-03T15:28:35.635Z,9.67
2018-11-03T15:31:10.429Z,9.83
2018-11-03T15:33:45.193Z,11.03
2018-11-03T15:36:19.908Z,10.53
2018-11-03T15:38:54.823Z,10.90
2018-11-03T15:41:29.371Z,10.77
2018-11-03T15:44:08.478Z,10.13
2018-11-03T15:46:43.701Z,14.90
2018-11-03T15:49:18.266Z,11.03
2018-11-03T15:51:53.025Z,10.53
2018-11-03T15:54:30.307Z,10.50
2018-11-03T15:57:06.346Z,10.27
2018-11-03T15:59:46.506Z,12.83
2018-11-03T16:02:22.613Z,11.23
2018-11-03T16:05:00.582Z,9.53
2018-11-03T16:07:48.003Z,11.43
2018-11-03T16:16:27.752Z,9.90
2018-11-03T16:19:02.842Z,11.13
2018-11-03T16:21:37.586Z,12.07
2018-11-03T16:24:12.455Z,11.73
2018-11-03T16:26:47.004Z,12.00
2018-11-03T16:29:21.824Z,12.30
2018-11-03T16:31:56.270Z,11.07
2018-11-03T16:34:30.774Z,13.13
2018-11-03T16:37:05.472Z,14.23
2018-11-03T16:39:40.097Z,11.43
2018-11-03T16:42:14.805Z,13.03
2018-11-03T16:44:49.486Z,11.77
2018-11-03T16:47:24.260Z,13.13
2018-11-03T16:50:03.211Z,12.37
2018-11-03T16:52:38.751Z,12.33
2018-11-03T16:55:14.477Z,12.03
2018-11-03T16:57:50.313Z,12.60
2018-11-03T17:00:24.909Z,12.10
2018-11-03T17:02:59.412Z,12.23
2018-11-03T17:05:34.166Z,12.80
2018-11-03T17:08:10.552Z,12.37
2018-11-03T17:10:45.416Z,13.50
2018-11-03T17:13:19.882Z,13.93
2018-11-03T17:15:54.548Z,13.30
2018-11-03T17:18:29.069Z,14.33
2018-11-03T17:21:03.656Z,15.70
2018-11-03T17:23:39.494Z,16.87
2018-11-03T17:26:14.237Z,12.67
2018-11-03T17:28:49.104Z,13.20
2018-11-03T17:31:28.637Z,13.47
2018-11-03T17:34:03.839Z,16.13
2018-11-03T17:36:38.386Z,13.40
2018-11-03T17:39:13.294Z,14.77
2018-11-03T17:41:48.028Z,15.07
2018-11-03T17:44:22.657Z,14.20
2018-11-03T17:46:57.192Z,16.33
2018-11-03T17:49:33.291Z,17.30
2018-11-03T17:52:07.843Z,14.53
2018-11-03T17:54:42.493Z,16.63
2018-11-03T17:57:17.106Z,14.30
2018-11-03T17:59:51.677Z,14.53
2018-11-03T18:02:26.310Z,15.30
2018-11-03T18:05:00.969Z,15.13
2018-11-03T18:07:35.514Z,15.97
2018-11-03T18:10:11.363Z,15.60
2018-11-03T18:12:46.018Z,15.03
2018-11-03T18:15:22.009Z,15.60
2018-11-03T18:17:59.320Z,16.13
2018-11-03T18:20:34.465Z,16.13
2018-11-03T18:23:11.326Z,15.10
2018-11-03T18:25:46.029Z,14.83
2018-11-03T18:28:20.591Z,15.30
2018-11-03T18:30:57.275Z,15.90
2018-11-03T18:33:32.272Z,16.07
2018-11-03T18:36:06.894Z,16.40
2018-11-03T18:38:42.495Z,15.27
2018-11-03T18:41:16.940Z,15.30
2018-11-03T18:43:51.634Z,15.77
2018-11-03T18:46:26.222Z,15.03
2018-11-03T18:49:00.680Z,14.77
2018-11-03T18:51:35.738Z,13.40
2018-11-03T18:54:10.617Z,14.83
2018-11-03T18:56:45.066Z,14.17
2018-11-03T18:59:19.794Z,15.93
2018-11-03T19:01:54.257Z,14.57
2018-11-03T19:04:28.971Z,15.07
2018-11-03T19:07:06.950Z,14.63
2018-11-03T19:09:42.449Z,15.53
2018-11-03T19:12:17.221Z,14.90
2018-11-03T19:14:51.903Z,16.70
2018-11-03T19:17:27.215Z,17.67
2018-11-03T19:20:02.062Z,15.20
2018-11-03T19:22:37.135Z,16.10
2018-11-03T19:25:13.008Z,17.37
2018-11-03T19:27:47.790Z,16.67
2018-11-03T19:30:22.579Z,17.47
2018-11-03T19:32:59.273Z,16.33
2018-11-03T19:35:35.560Z,16.30
2018-11-03T19:38:11.621Z,15.87
2018-11-03T19:40:46.961Z,18.77
2018-11-03T19:43:22.122Z,16.63
2018-11-03T19:45:57.098Z,16.97
2018-11-03T19:48:34.251Z,17.50
2018-11-03T19:51:08.953Z,14.80
2018-11-03T19:53:43.997Z,17.77
2018-11-03T19:56:19.026Z,19.13
2018-11-03T19:58:54.221Z,18.87
2018-11-03T20:01:30.158Z,16.00
2018-11-03T20:04:06.503Z,15.13
2018-11-03T20:06:44.728Z,17.90
2018-11-03T20:09:19.867Z,15.67
2018-11-03T20:11:54.619Z,17.63
2018-11-03T20:14:29.935Z,15.77
2018-11-03T20:17:08.295Z,17.87
2018-11-03T20:19:43.161Z,14.63
2018-11-03T20:22:18.947Z,18.93
2018-11-03T20:24:53.839Z,16.50
2018-11-03T20:27:28.599Z,15.20
2018-11-03T20:30:05.766Z,15.70
2018-11-03T20:32:40.675Z,17.97
2018-11-03T20:35:15.846Z,17.03
2018-11-03T20:37:50.853Z,16.80
2018-11-03T20:40:25.671Z,18.83
2018-11-03T20:43:01.143Z,20.87
2018-11-03T20:45:38.063Z,15.47
2018-11-03T20:48:13.749Z,19.67
2018-11-03T20:51:14.347Z,18.73
2018-11-03T20:53:52.917Z,16.50
2018-11-03T21:01:01.529Z,15.90
2018-11-03T21:03:36.511Z,18.37
2018-11-03T21:06:11.517Z,18.63
2018-11-03T21:08:46.628Z,19.33
2018-11-03T21:11:21.460Z,19.40
2018-11-03T21:13:57.376Z,20.30
2018-11-03T21:16:32.547Z,18.80
2018-11-03T21:19:07.916Z,19.70
2018-11-03T21:21:43.243Z,18.73
2018-11-03T21:24:19.386Z,18.47
2018-11-03T21:27:02.126Z,20.87
2018-11-03T21:29:37.328Z,21.67
2018-11-03T21:32:12.439Z,19.73
2018-11-03T21:34:47.187Z,20.00
2018-11-03T21:37:22.050Z,18.23
2018-11-03T21:39:56.708Z,21.93
2018-11-03T21:42:31.639Z,22.03
2018-11-03T21:45:07.182Z,18.17
2018-11-03T21:47:42.077Z,18.70
2018-11-03T21:50:16.665Z,22.00
2018-11-03T21:52:51.790Z,23.07
2018-11-03T21:55:26.887Z,20.23
2018-11-03T21:58:01.865Z,20.37
2018-11-03T22:00:37.804Z,23.17
2018-11-03T22:03:13.879Z,20.90
2018-11-03T22:05:51.128Z,22.40
2018-11-03T22:08:26.225Z,18.47
2018-11-03T22:11:08.644Z,24.23
2018-11-03T22:13:43.774Z,20.93
2018-11-03T22:16:24.994Z,20.37
2018-11-03T22:18:59.958Z,20.27
2018-11-03T22:21:35.715Z,20.63
2018-11-03T22:24:16.463Z,18.43
2018-11-03T22:26:55.693Z,19.97
2018-11-03T22:29:31.291Z,22.30
2018-11-03T22:32:08.090Z,18.77
2018-11-03T22:34:42.858Z,20.37
2018-11-03T22:37:17.614Z,23.93
2018-11-03T22:39:53.553Z,21.53
2018-11-03T22:42:28.112Z,21.00
2018-11-03T22:45:03.201Z,21.23
2018-11-03T22:47:38.330Z,19.70
2018-11-03T22:50:13.474Z,22.80
2018-11-03T22:52:48.692Z,24.20
2018-11-03T22:55:23.593Z,22.60
2018-11-03T22:57:58.477Z,21.47
2018-11-03T23:00:36.573Z,21.60
2018-11-03T23:03:12.299Z,19.20
2018-11-03T23:05:47.690Z,26.40
2018-11-03T23:08:23.968Z,23.13
2018-11-03T23:10:58.820Z,21.53
2018-11-03T23:13:33.968Z,24.00
2018-11-03T23:16:09.590Z,22.80
2018-11-03T23:18:45.665Z,22.90
2018-11-03T23:21:20.659Z,26.10
2018-11-03T23:23:56.660Z,30.53
2018-11-03T23:26:32.315Z,29.47
2018-11-03T23:29:08.445Z,26.50
2018-11-03T23:31:43.402Z,24.70
2018-11-03T23:34:18.426Z,27.47
2018-11-03T23:36:53.284Z,21.80
2018-11-03T23:39:28.345Z,24.33
2018-11-03T23:42:04.983Z,25.20
2018-11-03T23:44:42.372Z,23.17
2018-11-03T23:47:18.480Z,23.30
2018-11-03T23:49:53.272Z,22.63
2018-11-03T23:52:36.239Z,25.27
2018-11-03T23:55:11.349Z,22.10
2018-11-03T23:57:46.134Z,24.63
